sensor_id;sensor_type;location;lat;lon;timestamp;P1;durP1;ratioP1;P2;durP2;ratioP2
58842;SDS011;44614;54.356;10.100;2023-02-15T00:01:39;38.63;;;17.48;;
58842;SDS011;44614;54.356;10.100;2023-02-15T00:04:05;44.50;;;21.20;;
58842;SDS011;44614;54.356;10.100;2023-02-15T00:06:32;46.25;;;21.20;;
58842;SDS011;44614;54.356;10.100;2023-02-15T00:08:58;45.10;;;20.15;;
58842;SDS011;44614;54.356;10.100;2023-02-15T00:11:23;34.30;;;17.88;;
58842;SDS011;44614;54.356;10.100;2023-02-15T00:16:37;41.70;;;17.23;;
58842;SDS011;44614;54.356;10.100;2023-02-15T00:19:03;46.55;;;19.17;;
58842;SDS011;44614;54.356;10.100;2023-02-15T00:21:30;37.25;;;20.30;;
58842;SDS011;44614;54.356;10.100;2023-02-15T00:23:56;36.65;;;17.70;;
58842;SDS011;44614;54.356;10.100;2023-02-15T00:26:23;42.20;;;19.08;;
58842;SDS011;44614;54.356;10.100;2023-02-15T00:28:48;30.33;;;14.02;;
58842;SDS011;44614;54.356;10.100;2023-02-15T00:31:14;34.15;;;18.38;;
58842;SDS011;44614;54.356;10.100;2023-02-15T00:33:39;36.45;;;17.60;;
58842;SDS011;44614;54.356;10.100;2023-02-15T00:36:05;34.88;;;16.58;;
58842;SDS011;44614;54.356;10.100;2023-02-15T00:38:33;35.42;;;16.70;;
58842;SDS011;44614;54.356;10.100;2023-02-15T00:41:00;36.60;;;17.67;;
58842;SDS011;44614;54.356;10.100;2023-02-15T00:43:28;48.40;;;17.15;;
58842;SDS011;44614;54.356;10.100;2023-02-15T00:45:55;32.00;;;16.38;;
58842;SDS011;44614;54.356;10.100;2023-02-15T00:48:20;35.20;;;13.82;;
58842;SDS011;44614;54.356;10.100;2023-02-15T00:50:48;30.83;;;14.67;;
58842;SDS011;44614;54.356;10.100;2023-02-15T00:53:15;39.75;;;16.48;;
58842;SDS011;44614;54.356;10.100;2023-02-15T00:55:41;33.08;;;15.35;;
58842;SDS011;44614;54.356;10.100;2023-02-15T00:58:07;33.10;;;16.15;;
58842;SDS011;44614;54.356;10.100;2023-02-15T01:00:32;36.13;;;16.48;;
58842;SDS011;44614;54.356;10.100;2023-02-15T01:02:58;40.75;;;17.77;;
58842;SDS011;44614;54.356;10.100;2023-02-15T01:05:23;44.33;;;17.95;;
58842;SDS011;44614;54.356;10.100;2023-02-15T01:07:49;32.25;;;16.10;;
58842;SDS011;44614;54.356;10.100;2023-02-15T01:10:14;43.23;;;18.10;;
58842;SDS011;44614;54.356;10.100;2023-02-15T01:12:39;36.17;;;15.82;;
58842;SDS011;44614;54.356;10.100;2023-02-15T01:15:05;29.93;;;15.20;;
58842;SDS011;44614;54.356;10.100;2023-02-15T01:17:31;35.97;;;18.00;;
58842;SDS011;44614;54.356;10.100;2023-02-15T01:19:56;32.60;;;14.48;;
58842;SDS011;44614;54.356;10.100;2023-02-15T01:22:21;37.73;;;16.40;;
58842;SDS011;44614;54.356;10.100;2023-02-15T01:24:48;30.57;;;15.07;;
58842;SDS011;44614;54.356;10.100;2023-02-15T01:27:14;36.58;;;15.75;;
58842;SDS011;44614;54.356;10.100;2023-02-15T01:29:40;41.28;;;18.67;;
58842;SDS011;44614;54.356;10.100;2023-02-15T01:32:05;28.77;;;14.50;;
58842;SDS011;44614;54.356;10.100;2023-02-15T01:34:31;39.28;;;16.60;;
58842;SDS011;44614;54.356;10.100;2023-02-15T01:36:56;36.58;;;17.20;;
58842;SDS011;44614;54.356;10.100;2023-02-15T01:39:21;37.47;;;17.70;;
58842;SDS011;44614;54.356;10.100;2023-02-15T01:41:47;35.38;;;15.45;;
58842;SDS011;44614;54.356;10.100;2023-02-15T01:47:49;38.05;;;16.08;;
58842;SDS011;44614;54.356;10.100;2023-02-15T01:52:44;42.60;;;17.65;;
58842;SDS011;44614;54.356;10.100;2023-02-15T01:55:16;47.15;;;17.20;;
58842;SDS011;44614;54.356;10.100;2023-02-15T01:57:42;37.85;;;16.63;;
58842;SDS011;44614;54.356;10.100;2023-02-15T02:00:10;36.55;;;16.88;;
58842;SDS011;44614;54.356;10.100;2023-02-15T02:02:36;46.47;;;18.00;;
58842;SDS011;44614;54.356;10.100;2023-02-15T02:05:03;30.65;;;15.88;;
58842;SDS011;44614;54.356;10.100;2023-02-15T02:07:38;39.95;;;18.60;;
58842;SDS011;44614;54.356;10.100;2023-02-15T02:10:10;34.58;;;16.60;;
58842;SDS011;44614;54.356;10.100;2023-02-15T02:12:37;40.75;;;18.40;;
58842;SDS011;44614;54.356;10.100;2023-02-15T02:15:05;57.72;;;20.20;;
58842;SDS011;44614;54.356;10.100;2023-02-15T02:20:15;38.30;;;19.42;;
58842;SDS011;44614;54.356;10.100;2023-02-15T02:25:53;51.20;;;22.63;;
58842;SDS011;44614;54.356;10.100;2023-02-15T02:48:32;39.85;;;17.45;;
58842;SDS011;44614;54.356;10.100;2023-02-15T02:50:58;33.55;;;14.57;;
58842;SDS011;44614;54.356;10.100;2023-02-15T02:53:23;39.15;;;18.40;;
58842;SDS011;44614;54.356;10.100;2023-02-15T03:01:31;29.50;;;15.63;;
58842;SDS011;44614;54.356;10.100;2023-02-15T03:04:09;39.13;;;16.83;;
58842;SDS011;44614;54.356;10.100;2023-02-15T03:06:46;37.40;;;14.60;;
58842;SDS011;44614;54.356;10.100;2023-02-15T03:09:30;36.25;;;17.33;;
58842;SDS011;44614;54.356;10.100;2023-02-15T03:12:13;33.75;;;16.42;;
58842;SDS011;44614;54.356;10.100;2023-02-15T03:14:44;33.72;;;14.20;;
58842;SDS011;44614;54.356;10.100;2023-02-15T03:17:14;34.78;;;16.58;;
58842;SDS011;44614;54.356;10.100;2023-02-15T03:19:41;33.08;;;15.90;;
58842;SDS011;44614;54.356;10.100;2023-02-15T03:22:15;32.35;;;12.98;;
58842;SDS011;44614;54.356;10.100;2023-02-15T03:27:17;27.98;;;11.98;;
58842;SDS011;44614;54.356;10.100;2023-02-15T03:29:48;30.23;;;14.02;;
58842;SDS011;44614;54.356;10.100;2023-02-15T03:32:18;27.52;;;12.45;;
58842;SDS011;44614;54.356;10.100;2023-02-15T03:34:44;25.67;;;12.67;;
58842;SDS011;44614;54.356;10.100;2023-02-15T03:37:13;33.13;;;14.00;;
58842;SDS011;44614;54.356;10.100;2023-02-15T03:39:49;27.10;;;14.13;;
58842;SDS011;44614;54.356;10.100;2023-02-15T03:42:25;31.38;;;15.13;;
58842;SDS011;44614;54.356;10.100;2023-02-15T03:44:59;31.33;;;14.00;;
58842;SDS011;44614;54.356;10.100;2023-02-15T03:47:34;28.50;;;14.23;;
58842;SDS011;44614;54.356;10.100;2023-02-15T03:50:13;25.10;;;11.57;;
58842;SDS011;44614;54.356;10.100;2023-02-15T03:55:29;49.33;;;16.27;;
58842;SDS011;44614;54.356;10.100;2023-02-15T03:57:55;26.88;;;11.68;;
58842;SDS011;44614;54.356;10.100;2023-02-15T04:01:00;107.38;;;22.67;;
58842;SDS011;44614;54.356;10.100;2023-02-15T04:03:50;40.13;;;15.10;;
58842;SDS011;44614;54.356;10.100;2023-02-15T04:06:22;30.63;;;14.00;;
58842;SDS011;44614;54.356;10.100;2023-02-15T04:08:47;63.33;;;17.02;;
58842;SDS011;44614;54.356;10.100;2023-02-15T04:11:31;32.45;;;13.80;;
58842;SDS011;44614;54.356;10.100;2023-02-15T04:13:57;36.15;;;13.90;;
58842;SDS011;44614;54.356;10.100;2023-02-15T04:16:22;28.63;;;11.90;;
58842;SDS011;44614;54.356;10.100;2023-02-15T04:18:48;22.67;;;13.83;;
58842;SDS011;44614;54.356;10.100;2023-02-15T04:21:32;28.00;;;11.32;;
58842;SDS011;44614;54.356;10.100;2023-02-15T04:24:17;29.48;;;11.75;;
58842;SDS011;44614;54.356;10.100;2023-02-15T04:27:02;21.73;;;10.60;;
58842;SDS011;44614;54.356;10.100;2023-02-15T04:29:29;29.55;;;11.63;;
58842;SDS011;44614;54.356;10.100;2023-02-15T04:31:56;42.97;;;13.75;;
58842;SDS011;44614;54.356;10.100;2023-02-15T04:34:22;38.83;;;13.00;;
58842;SDS011;44614;54.356;10.100;2023-02-15T04:36:48;30.63;;;14.30;;
58842;SDS011;44614;54.356;10.100;2023-02-15T04:39:15;55.30;;;14.75;;
58842;SDS011;44614;54.356;10.100;2023-02-15T04:41:41;26.20;;;11.65;;
58842;SDS011;44614;54.356;10.100;2023-02-15T04:44:07;37.38;;;13.38;;
58842;SDS011;44614;54.356;10.100;2023-02-15T04:46:33;39.92;;;13.70;;
58842;SDS011;44614;54.356;10.100;2023-02-15T04:48:58;24.13;;;11.37;;
58842;SDS011;44614;54.356;10.100;2023-02-15T04:51:23;20.38;;;10.50;;
58842;SDS011;44614;54.356;10.100;2023-02-15T04:53:49;30.40;;;11.90;;
58842;SDS011;44614;54.356;10.100;2023-02-15T04:56:17;18.77;;;10.45;;
58842;SDS011;44614;54.356;10.100;2023-02-15T04:58:42;22.25;;;9.73;;
58842;SDS011;44614;54.356;10.100;2023-02-15T05:01:08;28.73;;;11.82;;
58842;SDS011;44614;54.356;10.100;2023-02-15T05:03:33;24.73;;;10.63;;
58842;SDS011;44614;54.356;10.100;2023-02-15T05:05:59;28.27;;;10.82;;
58842;SDS011;44614;54.356;10.100;2023-02-15T05:08:24;20.23;;;9.88;;
58842;SDS011;44614;54.356;10.100;2023-02-15T05:10:50;19.43;;;10.30;;
58842;SDS011;44614;54.356;10.100;2023-02-15T05:13:15;23.80;;;11.70;;
58842;SDS011;44614;54.356;10.100;2023-02-15T05:15:41;32.00;;;12.35;;
58842;SDS011;44614;54.356;10.100;2023-02-15T05:18:06;28.30;;;13.00;;
58842;SDS011;44614;54.356;10.100;2023-02-15T05:20:32;30.73;;;13.40;;
58842;SDS011;44614;54.356;10.100;2023-02-15T05:22:58;41.97;;;12.55;;
58842;SDS011;44614;54.356;10.100;2023-02-15T05:25:23;78.47;;;16.73;;
58842;SDS011;44614;54.356;10.100;2023-02-15T05:28:08;21.60;;;10.23;;
58842;SDS011;44614;54.356;10.100;2023-02-15T05:30:44;26.98;;;11.60;;
58842;SDS011;44614;54.356;10.100;2023-02-15T05:33:13;56.13;;;12.90;;
58842;SDS011;44614;54.356;10.100;2023-02-15T05:35:39;21.58;;;10.10;;
58842;SDS011;44614;54.356;10.100;2023-02-15T05:38:04;46.78;;;14.20;;
58842;SDS011;44614;54.356;10.100;2023-02-15T05:40:29;32.88;;;12.00;;
58842;SDS011;44614;54.356;10.100;2023-02-15T05:42:55;66.63;;;14.15;;
58842;SDS011;44614;54.356;10.100;2023-02-15T05:45:21;54.75;;;15.80;;
58842;SDS011;44614;54.356;10.100;2023-02-15T05:47:46;61.70;;;14.35;;
58842;SDS011;44614;54.356;10.100;2023-02-15T05:50:11;24.67;;;10.57;;
58842;SDS011;44614;54.356;10.100;2023-02-15T05:52:37;24.15;;;11.40;;
58842;SDS011;44614;54.356;10.100;2023-02-15T05:55:02;100.50;;;18.17;;
58842;SDS011;44614;54.356;10.100;2023-02-15T05:57:29;53.35;;;13.40;;
58842;SDS011;44614;54.356;10.100;2023-02-15T05:59:56;20.08;;;10.68;;
58842;SDS011;44614;54.356;10.100;2023-02-15T06:02:21;21.40;;;11.50;;
58842;SDS011;44614;54.356;10.100;2023-02-15T06:04:47;60.22;;;14.65;;
58842;SDS011;44614;54.356;10.100;2023-02-15T06:07:12;29.63;;;11.93;;
58842;SDS011;44614;54.356;10.100;2023-02-15T06:09:38;119.22;;;17.45;;
58842;SDS011;44614;54.356;10.100;2023-02-15T06:12:03;24.13;;;10.30;;
58842;SDS011;44614;54.356;10.100;2023-02-15T06:14:28;102.43;;;20.70;;
58842;SDS011;44614;54.356;10.100;2023-02-15T06:16:54;35.42;;;14.07;;
58842;SDS011;44614;54.356;10.100;2023-02-15T06:19:19;46.05;;;13.23;;
58842;SDS011;44614;54.356;10.100;2023-02-15T06:21:45;37.47;;;11.80;;
58842;SDS011;44614;54.356;10.100;2023-02-15T06:24:11;35.72;;;12.55;;
58842;SDS011;44614;54.356;10.100;2023-02-15T06:26:36;68.45;;;14.85;;
58842;SDS011;44614;54.356;10.100;2023-02-15T06:29:02;23.43;;;10.73;;
58842;SDS011;44614;54.356;10.100;2023-02-15T06:31:27;51.65;;;13.30;;
58842;SDS011;44614;54.356;10.100;2023-02-15T06:33:53;18.23;;;10.00;;
58842;SDS011;44614;54.356;10.100;2023-02-15T06:36:25;28.02;;;10.77;;
58842;SDS011;44614;54.356;10.100;2023-02-15T06:38:51;24.88;;;10.75;;
58842;SDS011;44614;54.356;10.100;2023-02-15T06:41:16;27.50;;;11.63;;
58842;SDS011;44614;54.356;10.100;2023-02-15T06:43:42;28.80;;;12.52;;
58842;SDS011;44614;54.356;10.100;2023-02-15T06:46:07;35.95;;;14.20;;
58842;SDS011;44614;54.356;10.100;2023-02-15T06:48:32;24.63;;;12.38;;
58842;SDS011;44614;54.356;10.100;2023-02-15T06:50:58;51.67;;;13.10;;
58842;SDS011;44614;54.356;10.100;2023-02-15T06:53:23;74.43;;;19.40;;
58842;SDS011;44614;54.356;10.100;2023-02-15T06:55:48;43.88;;;13.10;;
58842;SDS011;44614;54.356;10.100;2023-02-15T06:58:14;22.48;;;11.30;;
58842;SDS011;44614;54.356;10.100;2023-02-15T07:00:39;51.50;;;12.65;;
58842;SDS011;44614;54.356;10.100;2023-02-15T07:03:04;26.75;;;11.73;;
58842;SDS011;44614;54.356;10.100;2023-02-15T07:05:32;31.88;;;14.00;;
58842;SDS011;44614;54.356;10.100;2023-02-15T07:07:59;22.55;;;11.95;;
58842;SDS011;44614;54.356;10.100;2023-02-15T07:10:25;35.97;;;15.00;;
58842;SDS011;44614;54.356;10.100;2023-02-15T07:12:51;26.92;;;10.38;;
58842;SDS011;44614;54.356;10.100;2023-02-15T07:15:17;42.75;;;14.93;;
58842;SDS011;44614;54.356;10.100;2023-02-15T07:17:45;66.78;;;17.20;;
58842;SDS011;44614;54.356;10.100;2023-02-15T07:20:12;21.67;;;10.68;;
58842;SDS011;44614;54.356;10.100;2023-02-15T07:22:39;30.17;;;10.57;;
58842;SDS011;44614;54.356;10.100;2023-02-15T07:25:05;49.25;;;14.80;;
58842;SDS011;44614;54.356;10.100;2023-02-15T07:27:33;27.98;;;10.73;;
58842;SDS011;44614;54.356;10.100;2023-02-15T07:29:58;28.50;;;11.80;;
58842;SDS011;44614;54.356;10.100;2023-02-15T07:32:26;33.60;;;12.63;;
58842;SDS011;44614;54.356;10.100;2023-02-15T07:34:55;95.07;;;19.00;;
58842;SDS011;44614;54.356;10.100;2023-02-15T07:37:21;59.58;;;15.57;;
58842;SDS011;44614;54.356;10.100;2023-02-15T07:39:47;44.97;;;13.00;;
58842;SDS011;44614;54.356;10.100;2023-02-15T07:42:12;25.10;;;11.40;;
58842;SDS011;44614;54.356;10.100;2023-02-15T07:44:37;52.88;;;14.90;;
58842;SDS011;44614;54.356;10.100;2023-02-15T07:47:03;20.03;;;10.73;;
58842;SDS011;44614;54.356;10.100;2023-02-15T07:49:28;35.50;;;12.60;;
58842;SDS011;44614;54.356;10.100;2023-02-15T07:51:53;78.07;;;17.43;;
58842;SDS011;44614;54.356;10.100;2023-02-15T07:54:19;66.53;;;14.00;;
58842;SDS011;44614;54.356;10.100;2023-02-15T07:56:44;18.52;;;10.57;;
58842;SDS011;44614;54.356;10.100;2023-02-15T07:59:09;36.45;;;13.15;;
58842;SDS011;44614;54.356;10.100;2023-02-15T08:01:35;26.98;;;10.95;;
58842;SDS011;44614;54.356;10.100;2023-02-15T08:04:02;69.35;;;18.65;;
58842;SDS011;44614;54.356;10.100;2023-02-15T08:06:30;27.55;;;11.80;;
58842;SDS011;44614;54.356;10.100;2023-02-15T08:08:57;44.20;;;13.98;;
58842;SDS011;44614;54.356;10.100;2023-02-15T08:11:23;30.13;;;11.93;;
58842;SDS011;44614;54.356;10.100;2023-02-15T08:13:58;53.03;;;14.50;;
58842;SDS011;44614;54.356;10.100;2023-02-15T08:19:13;25.90;;;9.98;;
58842;SDS011;44614;54.356;10.100;2023-02-15T08:21:40;30.60;;;12.88;;
58842;SDS011;44614;54.356;10.100;2023-02-15T08:24:06;34.95;;;12.07;;
58842;SDS011;44614;54.356;10.100;2023-02-15T08:26:33;83.93;;;21.93;;
58842;SDS011;44614;54.356;10.100;2023-02-15T08:28:59;49.25;;;17.38;;
58842;SDS011;44614;54.356;10.100;2023-02-15T08:31:26;50.70;;;17.27;;
58842;SDS011;44614;54.356;10.100;2023-02-15T08:33:53;24.88;;;11.77;;
58842;SDS011;44614;54.356;10.100;2023-02-15T08:36:20;60.67;;;14.07;;
58842;SDS011;44614;54.356;10.100;2023-02-15T08:38:49;40.97;;;11.95;;
58842;SDS011;44614;54.356;10.100;2023-02-15T08:43:44;61.25;;;13.57;;
58842;SDS011;44614;54.356;10.100;2023-02-15T08:46:11;23.85;;;9.73;;
58842;SDS011;44614;54.356;10.100;2023-02-15T08:48:38;64.43;;;15.00;;
58842;SDS011;44614;54.356;10.100;2023-02-15T08:51:12;45.33;;;13.27;;
58842;SDS011;44614;54.356;10.100;2023-02-15T08:53:40;27.40;;;13.88;;
58842;SDS011;44614;54.356;10.100;2023-02-15T08:56:07;40.53;;;14.02;;
58842;SDS011;44614;54.356;10.100;2023-02-15T08:58:34;27.02;;;10.15;;
58842;SDS011;44614;54.356;10.100;2023-02-15T09:01:00;58.40;;;14.05;;
58842;SDS011;44614;54.356;10.100;2023-02-15T09:03:27;18.65;;;9.80;;
58842;SDS011;44614;54.356;10.100;2023-02-15T09:05:57;40.15;;;13.20;;
58842;SDS011;44614;54.356;10.100;2023-02-15T09:08:23;38.88;;;12.88;;
58842;SDS011;44614;54.356;10.100;2023-02-15T09:10:49;51.67;;;14.20;;
58842;SDS011;44614;54.356;10.100;2023-02-15T09:13:14;33.23;;;11.87;;
58842;SDS011;44614;54.356;10.100;2023-02-15T09:15:39;35.20;;;12.40;;
58842;SDS011;44614;54.356;10.100;2023-02-15T09:18:05;30.20;;;11.33;;
58842;SDS011;44614;54.356;10.100;2023-02-15T09:20:31;45.80;;;13.60;;
58842;SDS011;44614;54.356;10.100;2023-02-15T09:22:59;28.35;;;12.30;;
58842;SDS011;44614;54.356;10.100;2023-02-15T09:25:25;24.20;;;11.67;;
58842;SDS011;44614;54.356;10.100;2023-02-15T09:27:50;54.97;;;14.45;;
58842;SDS011;44614;54.356;10.100;2023-02-15T09:30:15;41.20;;;12.47;;
58842;SDS011;44614;54.356;10.100;2023-02-15T09:32:41;35.55;;;9.85;;
58842;SDS011;44614;54.356;10.100;2023-02-15T09:35:06;82.97;;;16.90;;
58842;SDS011;44614;54.356;10.100;2023-02-15T09:37:32;24.50;;;9.20;;
58842;SDS011;44614;54.356;10.100;2023-02-15T09:39:57;30.07;;;9.10;;
58842;SDS011;44614;54.356;10.100;2023-02-15T09:42:26;33.97;;;12.50;;
58842;SDS011;44614;54.356;10.100;2023-02-15T09:45:23;28.95;;;11.18;;
58842;SDS011;44614;54.356;10.100;2023-02-15T09:48:03;84.82;;;19.00;;
58842;SDS011;44614;54.356;10.100;2023-02-15T09:56:42;28.02;;;11.75;;
58842;SDS011;44614;54.356;10.100;2023-02-15T10:02:15;40.42;;;13.55;;
58842;SDS011;44614;54.356;10.100;2023-02-15T10:26:43;94.57;;;21.13;;
58842;SDS011;44614;54.356;10.100;2023-02-15T10:32:20;42.35;;;15.38;;
58842;SDS011;44614;54.356;10.100;2023-02-15T10:34:53;27.85;;;12.40;;
58842;SDS011;44614;54.356;10.100;2023-02-15T10:45:39;30.58;;;12.00;;
58842;SDS011;44614;54.356;10.100;2023-02-15T10:48:21;34.75;;;13.30;;
58842;SDS011;44614;54.356;10.100;2023-02-15T10:50:55;58.80;;;16.63;;
58842;SDS011;44614;54.356;10.100;2023-02-15T11:01:35;35.47;;;13.05;;
58842;SDS011;44614;54.356;10.100;2023-02-15T11:07:12;29.08;;;13.45;;
58842;SDS011;44614;54.356;10.100;2023-02-15T11:09:46;27.95;;;12.20;;
58842;SDS011;44614;54.356;10.100;2023-02-15T11:12:17;53.08;;;13.70;;
58842;SDS011;44614;54.356;10.100;2023-02-15T11:17:45;61.72;;;15.05;;
58842;SDS011;44614;54.356;10.100;2023-02-15T11:22:54;41.25;;;14.88;;
58842;SDS011;44614;54.356;10.100;2023-02-15T11:25:32;41.45;;;15.20;;
58842;SDS011;44614;54.356;10.100;2023-02-15T11:27:59;27.27;;;11.32;;
58842;SDS011;44614;54.356;10.100;2023-02-15T11:30:39;29.60;;;13.73;;
58842;SDS011;44614;54.356;10.100;2023-02-15T11:33:17;47.53;;;12.63;;
58842;SDS011;44614;54.356;10.100;2023-02-15T11:38:32;38.15;;;11.65;;
58842;SDS011;44614;54.356;10.100;2023-02-15T11:41:03;30.20;;;13.35;;
58842;SDS011;44614;54.356;10.100;2023-02-15T11:43:38;30.52;;;13.00;;
58842;SDS011;44614;54.356;10.100;2023-02-15T11:46:10;32.33;;;13.05;;
58842;SDS011;44614;54.356;10.100;2023-02-15T11:48:37;33.15;;;13.55;;
58842;SDS011;44614;54.356;10.100;2023-02-15T11:51:03;30.58;;;12.38;;
58842;SDS011;44614;54.356;10.100;2023-02-15T11:53:31;29.33;;;14.10;;
58842;SDS011;44614;54.356;10.100;2023-02-15T11:55:58;45.40;;;15.02;;
58842;SDS011;44614;54.356;10.100;2023-02-15T11:58:28;29.40;;;13.40;;
58842;SDS011;44614;54.356;10.100;2023-02-15T12:01:00;38.83;;;14.07;;
58842;SDS011;44614;54.356;10.100;2023-02-15T12:06:01;26.60;;;12.90;;
58842;SDS011;44614;54.356;10.100;2023-02-15T12:08:37;29.08;;;13.25;;
58842;SDS011;44614;54.356;10.100;2023-02-15T12:11:10;32.55;;;14.98;;
58842;SDS011;44614;54.356;10.100;2023-02-15T12:14:00;24.80;;;13.27;;
58842;SDS011;44614;54.356;10.100;2023-02-15T12:16:27;27.42;;;13.48;;
58842;SDS011;44614;54.356;10.100;2023-02-15T12:18:58;32.95;;;13.68;;
58842;SDS011;44614;54.356;10.100;2023-02-15T12:21:29;29.63;;;12.52;;
58842;SDS011;44614;54.356;10.100;2023-02-15T12:24:17;31.20;;;12.05;;
58842;SDS011;44614;54.356;10.100;2023-02-15T12:26:55;30.20;;;14.68;;
58842;SDS011;44614;54.356;10.100;2023-02-15T12:29:24;33.08;;;13.75;;
58842;SDS011;44614;54.356;10.100;2023-02-15T12:31:52;36.97;;;14.00;;
58842;SDS011;44614;54.356;10.100;2023-02-15T12:34:21;25.33;;;14.07;;
58842;SDS011;44614;54.356;10.100;2023-02-15T12:36:48;28.17;;;13.00;;
58842;SDS011;44614;54.356;10.100;2023-02-15T12:39:22;37.45;;;13.93;;
58842;SDS011;44614;54.356;10.100;2023-02-15T12:47:33;27.85;;;12.90;;
58842;SDS011;44614;54.356;10.100;2023-02-15T12:49:43;29.42;;;14.73;;
58842;SDS011;44614;54.356;10.100;2023-02-15T12:54:47;28.17;;;15.10;;
58842;SDS011;44614;54.356;10.100;2023-02-15T12:57:14;32.27;;;11.40;;
58842;SDS011;44614;54.356;10.100;2023-02-15T12:59:50;32.30;;;13.27;;
58842;SDS011;44614;54.356;10.100;2023-02-15T13:02:21;28.50;;;12.70;;
58842;SDS011;44614;54.356;10.100;2023-02-15T13:04:50;30.90;;;15.10;;
58842;SDS011;44614;54.356;10.100;2023-02-15T13:07:16;37.78;;;14.45;;
58842;SDS011;44614;54.356;10.100;2023-02-15T13:09:42;27.33;;;12.00;;
58842;SDS011;44614;54.356;10.100;2023-02-15T13:12:14;28.08;;;13.50;;
58842;SDS011;44614;54.356;10.100;2023-02-15T13:14:44;35.13;;;14.50;;
58842;SDS011;44614;54.356;10.100;2023-02-15T13:17:12;36.25;;;13.30;;
58842;SDS011;44614;54.356;10.100;2023-02-15T13:19:42;32.05;;;13.43;;
58842;SDS011;44614;54.356;10.100;2023-02-15T13:22:14;20.42;;;12.38;;
58842;SDS011;44614;54.356;10.100;2023-02-15T13:27:12;29.23;;;13.93;;
58842;SDS011;44614;54.356;10.100;2023-02-15T13:29:43;29.27;;;12.60;;
58842;SDS011;44614;54.356;10.100;2023-02-15T13:32:12;29.40;;;13.05;;
58842;SDS011;44614;54.356;10.100;2023-02-15T13:34:50;27.85;;;12.82;;
58842;SDS011;44614;54.356;10.100;2023-02-15T13:37:47;29.15;;;11.55;;
58842;SDS011;44614;54.356;10.100;2023-02-15T13:42:59;29.50;;;13.48;;
58842;SDS011;44614;54.356;10.100;2023-02-15T13:51:43;31.50;;;14.02;;
58842;SDS011;44614;54.356;10.100;2023-02-15T13:57:21;31.58;;;13.43;;
58842;SDS011;44614;54.356;10.100;2023-02-15T14:11:07;31.77;;;15.38;;
58842;SDS011;44614;54.356;10.100;2023-02-15T14:22:25;32.33;;;13.85;;
58842;SDS011;44614;54.356;10.100;2023-02-15T14:25:30;40.08;;;16.15;;
58842;SDS011;44614;54.356;10.100;2023-02-15T14:28:12;29.60;;;15.85;;
58842;SDS011;44614;54.356;10.100;2023-02-15T14:30:46;32.45;;;14.93;;
58842;SDS011;44614;54.356;10.100;2023-02-15T14:36:04;32.47;;;15.18;;
58842;SDS011;44614;54.356;10.100;2023-02-15T14:41:48;30.63;;;16.08;;
58842;SDS011;44614;54.356;10.100;2023-02-15T14:44:23;36.40;;;16.15;;
58842;SDS011;44614;54.356;10.100;2023-02-15T14:49:32;34.08;;;16.48;;
58842;SDS011;44614;54.356;10.100;2023-02-15T14:52:02;39.47;;;16.63;;
58842;SDS011;44614;54.356;10.100;2023-02-15T14:59:27;35.22;;;16.20;;
58842;SDS011;44614;54.356;10.100;2023-02-15T15:07:28;38.25;;;17.48;;
58842;SDS011;44614;54.356;10.100;2023-02-15T15:10:03;43.03;;;19.17;;
58842;SDS011;44614;54.356;10.100;2023-02-15T15:17:53;43.50;;;19.70;;
58842;SDS011;44614;54.356;10.100;2023-02-15T15:28:05;38.08;;;18.42;;
58842;SDS011;44614;54.356;10.100;2023-02-15T15:41:15;53.60;;;20.50;;
58842;SDS011;44614;54.356;10.100;2023-02-15T15:49:18;47.20;;;17.85;;
58842;SDS011;44614;54.356;10.100;2023-02-15T15:51:45;55.22;;;21.00;;
58842;SDS011;44614;54.356;10.100;2023-02-15T15:54:15;42.08;;;20.65;;
58842;SDS011;44614;54.356;10.100;2023-02-15T15:56:44;52.40;;;22.98;;
58842;SDS011;44614;54.356;10.100;2023-02-15T15:59:16;46.70;;;20.05;;
58842;SDS011;44614;54.356;10.100;2023-02-15T16:01:46;41.75;;;18.23;;
58842;SDS011;44614;54.356;10.100;2023-02-15T16:04:13;54.88;;;20.85;;
58842;SDS011;44614;54.356;10.100;2023-02-15T16:06:47;38.97;;;19.33;;
58842;SDS011;44614;54.356;10.100;2023-02-15T16:09:15;49.80;;;20.80;;
58842;SDS011;44614;54.356;10.100;2023-02-15T16:14:32;52.22;;;22.88;;
58842;SDS011;44614;54.356;10.100;2023-02-15T16:17:02;54.60;;;23.42;;
58842;SDS011;44614;54.356;10.100;2023-02-15T16:19:32;49.83;;;23.30;;
58842;SDS011;44614;54.356;10.100;2023-02-15T16:22:00;55.10;;;23.23;;
58842;SDS011;44614;54.356;10.100;2023-02-15T16:29:36;49.55;;;24.80;;
58842;SDS011;44614;54.356;10.100;2023-02-15T16:32:03;54.25;;;22.75;;
58842;SDS011;44614;54.356;10.100;2023-02-15T16:34:30;54.97;;;24.58;;
58842;SDS011;44614;54.356;10.100;2023-02-15T16:37:15;65.20;;;24.67;;
58842;SDS011;44614;54.356;10.100;2023-02-15T16:39:48;82.43;;;26.48;;
58842;SDS011;44614;54.356;10.100;2023-02-15T16:42:15;52.63;;;24.55;;
58842;SDS011;44614;54.356;10.100;2023-02-15T16:44:42;50.60;;;25.08;;
58842;SDS011;44614;54.356;10.100;2023-02-15T16:47:14;63.58;;;26.45;;
58842;SDS011;44614;54.356;10.100;2023-02-15T16:49:46;54.45;;;25.70;;
58842;SDS011;44614;54.356;10.100;2023-02-15T16:52:16;55.67;;;25.30;;
58842;SDS011;44614;54.356;10.100;2023-02-15T16:54:47;63.03;;;28.17;;
58842;SDS011;44614;54.356;10.100;2023-02-15T16:57:20;63.85;;;29.08;;
58842;SDS011;44614;54.356;10.100;2023-02-15T16:59:48;74.25;;;28.40;;
58842;SDS011;44614;54.356;10.100;2023-02-15T17:04:43;65.65;;;28.00;;
58842;SDS011;44614;54.356;10.100;2023-02-15T17:07:20;56.97;;;27.35;;
58842;SDS011;44614;54.356;10.100;2023-02-15T17:09:53;64.20;;;28.15;;
58842;SDS011;44614;54.356;10.100;2023-02-15T17:15:36;84.72;;;29.15;;
58842;SDS011;44614;54.356;10.100;2023-02-15T17:18:04;73.53;;;28.98;;
58842;SDS011;44614;54.356;10.100;2023-02-15T17:20:35;72.88;;;30.15;;
58842;SDS011;44614;54.356;10.100;2023-02-15T17:23:03;49.08;;;24.75;;
58842;SDS011;44614;54.356;10.100;2023-02-15T17:25:38;70.50;;;30.77;;
58842;SDS011;44614;54.356;10.100;2023-02-15T17:28:15;67.88;;;30.55;;
58842;SDS011;44614;54.356;10.100;2023-02-15T17:30:43;69.63;;;28.98;;
58842;SDS011;44614;54.356;10.100;2023-02-15T17:33:35;66.70;;;27.23;;
58842;SDS011;44614;54.356;10.100;2023-02-15T17:36:11;72.18;;;32.08;;
58842;SDS011;44614;54.356;10.100;2023-02-15T17:39:06;76.03;;;31.25;;
58842;SDS011;44614;54.356;10.100;2023-02-15T17:41:45;73.23;;;29.37;;
58842;SDS011;44614;54.356;10.100;2023-02-15T17:44:12;73.72;;;31.45;;
58842;SDS011;44614;54.356;10.100;2023-02-15T17:46:40;102.68;;;36.42;;
58842;SDS011;44614;54.356;10.100;2023-02-15T17:49:06;95.07;;;35.60;;
58842;SDS011;44614;54.356;10.100;2023-02-15T17:51:32;71.90;;;31.98;;
58842;SDS011;44614;54.356;10.100;2023-02-15T17:54:00;112.82;;;35.88;;
58842;SDS011;44614;54.356;10.100;2023-02-15T17:56:44;113.65;;;36.20;;
58842;SDS011;44614;54.356;10.100;2023-02-15T17:59:09;76.47;;;32.10;;
58842;SDS011;44614;54.356;10.100;2023-02-15T18:01:37;104.82;;;35.05;;